sensor_id;sensor_type;location;lat;lon;timestamp;pressure;altitude;pressure_sealevel;temperature;humidity
56174;BME280;42058;52.308;20.924;2022-10-23T00:00:36;100545.06;;;12.92;100.00
56174;BME280;42058;52.308;20.924;2022-10-23T00:03:05;100549.95;;;12.91;100.00
56174;BME280;42058;52.308;20.924;2022-10-23T00:05:31;100555.63;;;12.92;100.00
56174;BME280;42058;52.308;20.924;2022-10-23T00:07:58;100552.98;;;12.92;100.00
56174;BME280;42058;52.308;20.924;2022-10-23T00:10:26;100553.45;;;12.91;100.00
56174;BME280;42058;52.308;20.924;2022-10-23T00:12:53;100550.34;;;12.92;100.00
56174;BME280;42058;52.308;20.924;2022-10-23T00:15:21;100547.70;;;12.92;100.00
56174;BME280;42058;52.308;20.924;2022-10-23T00:17:47;100565.34;;;12.91;100.00
56174;BME280;42058;52.308;20.924;2022-10-23T00:20:16;100562.23;;;12.92;100.00
56174;BME280;42058;52.308;20.924;2022-10-23T00:22:42;100569.69;;;12.92;100.00
56174;BME280;42058;52.308;20.924;2022-10-23T00:25:09;100569.77;;;12.91;100.00
56174;BME280;42058;52.308;20.924;2022-10-23T00:27:36;100571.52;;;12.90;100.00
56174;BME280;42058;52.308;20.924;2022-10-23T00:30:04;100572.41;;;12.91;100.00
56174;BME280;42058;52.308;20.924;2022-10-23T00:32:30;100570.20;;;12.90;100.00
56174;BME280;42058;52.308;20.924;2022-10-23T00:34:56;100576.80;;;12.90;100.00
56174;BME280;42058;52.308;20.924;2022-10-23T00:37:23;100577.27;;;12.89;100.00
56174;BME280;42058;52.308;20.924;2022-10-23T00:39:49;100582.97;;;12.91;100.00
56174;BME280;42058;52.308;20.924;2022-10-23T00:42:17;100578.59;;;12.89;100.00
56174;BME280;42058;52.308;20.924;2022-10-23T00:47:19;100591.80;;;12.89;100.00
56174;BME280;42058;52.308;20.924;2022-10-23T00:49:45;100584.34;;;12.89;100.00
56174;BME280;42058;52.308;20.924;2022-10-23T00:52:11;100582.13;;;12.88;100.00
56174;BME280;42058;52.308;20.924;2022-10-23T00:54:40;100591.80;;;12.89;100.00
56174;BME280;42058;52.308;20.924;2022-10-23T00:57:11;100594.85;;;12.91;100.00
56174;BME280;42058;52.308;20.924;2022-10-23T00:59:38;100593.97;;;12.90;100.00
56174;BME280;42058;52.308;20.924;2022-10-23T01:02:05;100597.49;;;12.91;100.00
56174;BME280;42058;52.308;20.924;2022-10-23T01:04:32;100601.45;;;12.91;100.00
56174;BME280;42058;52.308;20.924;2022-10-23T01:07:10;100599.25;;;12.90;100.00
56174;BME280;42058;52.308;20.924;2022-10-23T01:10:03;100605.81;;;12.92;100.00
56174;BME280;42058;52.308;20.924;2022-10-23T01:18:38;100614.20;;;12.91;100.00
56174;BME280;42058;52.308;20.924;2022-10-23T01:21:09;100607.98;;;12.92;100.00
56174;BME280;42058;52.308;20.924;2022-10-23T01:23:46;100621.19;;;12.92;100.00
56174;BME280;42058;52.308;20.924;2022-10-23T01:26:43;100619.48;;;12.91;100.00
56174;BME280;42058;52.308;20.924;2022-10-23T01:29:24;100619.95;;;12.91;100.00
56174;BME280;42058;52.308;20.924;2022-10-23T01:32:14;100621.66;;;12.92;100.00
56174;BME280;42058;52.308;20.924;2022-10-23T01:34:49;100626.04;;;12.93;100.00
56174;BME280;42058;52.308;20.924;2022-10-23T01:37:35;100626.94;;;12.92;100.00
56174;BME280;42058;52.308;20.924;2022-10-23T01:40:20;100621.66;;;12.92;100.00
56174;BME280;42058;52.308;20.924;2022-10-23T01:42:54;100626.89;;;12.93;100.00
56174;BME280;42058;52.308;20.924;2022-10-23T01:45:45;100618.55;;;12.92;100.00
56174;BME280;42058;52.308;20.924;2022-10-23T01:48:18;100624.25;;;12.93;100.00
56174;BME280;42058;52.308;20.924;2022-10-23T01:50:51;100623.34;;;12.94;100.00
56174;BME280;42058;52.308;20.924;2022-10-23T01:53:19;100620.75;;;12.93;100.00
56174;BME280;42058;52.308;20.924;2022-10-23T01:55:47;100620.33;;;12.92;100.00
56174;BME280;42058;52.308;20.924;2022-10-23T01:58:17;100618.55;;;12.92;100.00
56174;BME280;42058;52.308;20.924;2022-10-23T02:00:47;100622.08;;;12.93;100.00
56174;BME280;42058;52.308;20.924;2022-10-23T02:03:17;100624.67;;;12.94;100.00
56174;BME280;42058;52.308;20.924;2022-10-23T02:05:43;100626.84;;;12.95;100.00
56174;BME280;42058;52.308;20.924;2022-10-23T02:08:10;100631.62;;;12.97;100.00
56174;BME280;42058;52.308;20.924;2022-10-23T02:10:54;100627.66;;;12.97;100.00
56174;BME280;42058;52.308;20.924;2022-10-23T02:13:32;100630.30;;;12.97;100.00
56174;BME280;42058;52.308;20.924;2022-10-23T02:16:09;100631.62;;;12.97;100.00
56174;BME280;42058;52.308;20.924;2022-10-23T02:21:32;100636.00;;;12.98;100.00
56174;BME280;42058;52.308;20.924;2022-10-23T02:24:03;100639.08;;;12.97;100.00
56174;BME280;42058;52.308;20.924;2022-10-23T02:26:42;100639.96;;;12.98;100.00
56174;BME280;42058;52.308;20.924;2022-10-23T02:29:27;100639.96;;;12.98;100.00
56174;BME280;42058;52.308;20.924;2022-10-23T02:32:01;100645.16;;;12.99;100.00
56174;BME280;42058;52.308;20.924;2022-10-23T02:34:27;100652.23;;;12.99;100.00
56174;BME280;42058;52.308;20.924;2022-10-23T02:36:53;100653.09;;;12.99;100.00
56174;BME280;42058;52.308;20.924;2022-10-23T02:39:21;100653.98;;;13.00;100.00
56174;BME280;42058;52.308;20.924;2022-10-23T02:41:56;100652.66;;;13.00;100.00
56174;BME280;42058;52.308;20.924;2022-10-23T02:45:04;100652.19;;;13.00;100.00
56174;BME280;42058;52.308;20.924;2022-10-23T02:47:51;100654.36;;;13.01;100.00
56174;BME280;42058;52.308;20.924;2022-10-23T02:53:55;100654.36;;;13.01;100.00
56174;BME280;42058;52.308;20.924;2022-10-23T03:01:52;100660.97;;;13.01;100.00
56174;BME280;42058;52.308;20.924;2022-10-23T03:04:25;100656.11;;;13.02;100.00
56174;BME280;42058;52.308;20.924;2022-10-23T03:06:53;100660.92;;;13.02;100.00
56174;BME280;42058;52.308;20.924;2022-10-23T03:09:20;100664.42;;;13.03;100.00
56174;BME280;42058;52.308;20.924;2022-10-23T03:11:46;100663.52;;;13.04;100.00
56174;BME280;42058;52.308;20.924;2022-10-23T03:14:13;100654.32;;;13.02;100.00
56174;BME280;42058;52.308;20.924;2022-10-23T03:16:39;100652.95;;;13.04;100.00
56174;BME280;42058;52.308;20.924;2022-10-23T03:19:05;100661.73;;;13.04;100.00
56174;BME280;42058;52.308;20.924;2022-10-23T03:21:31;100658.23;;;13.04;100.00
56174;BME280;42058;52.308;20.924;2022-10-23T03:23:57;100658.19;;;13.05;100.00
56174;BME280;42058;52.308;20.924;2022-10-23T03:26:25;100658.19;;;13.05;100.00
56174;BME280;42058;52.308;20.924;2022-10-23T03:28:51;100648.98;;;13.04;100.00
56174;BME280;42058;52.308;20.924;2022-10-23T03:31:18;100651.59;;;13.05;100.00
56174;BME280;42058;52.308;20.924;2022-10-23T03:33:44;100650.31;;;13.04;100.00
56174;BME280;42058;52.308;20.924;2022-10-23T03:36:11;100652.48;;;13.04;100.00
56174;BME280;42058;52.308;20.924;2022-10-23T03:38:37;100655.98;;;13.05;100.00
56174;BME280;42058;52.308;20.924;2022-10-23T03:41:03;100668.38;;;13.03;100.00
56174;BME280;42058;52.308;20.924;2022-10-23T03:43:29;100670.22;;;13.01;100.00
56174;BME280;42058;52.308;20.924;2022-10-23T03:45:56;100673.37;;;12.99;100.00
56174;BME280;42058;52.308;20.924;2022-10-23T03:48:24;100676.94;;;12.98;100.00
56174;BME280;42058;52.308;20.924;2022-10-23T03:50:51;100673.02;;;12.96;100.00
56174;BME280;42058;52.308;20.924;2022-10-23T03:53:17;100669.92;;;12.97;100.00
56174;BME280;42058;52.308;20.924;2022-10-23T03:55:44;100676.98;;;12.96;100.00
56174;BME280;42058;52.308;20.924;2022-10-23T03:58:10;100676.09;;;12.96;100.00
56174;BME280;42058;52.308;20.924;2022-10-23T04:00:36;100684.48;;;12.95;100.00
56174;BME280;42058;52.308;20.924;2022-10-23T04:03:02;100682.31;;;12.95;100.00
56174;BME280;42058;52.308;20.924;2022-10-23T04:05:28;100687.59;;;12.95;100.00
56174;BME280;42058;52.308;20.924;2022-10-23T04:07:55;100691.09;;;12.95;100.00
56174;BME280;42058;52.308;20.924;2022-10-23T04:10:22;100694.71;;;12.93;100.00
56174;BME280;42058;52.308;20.924;2022-10-23T04:12:49;100706.55;;;12.94;100.00
56174;BME280;42058;52.308;20.924;2022-10-23T04:15:15;100696.93;;;12.92;100.00
56174;BME280;42058;52.308;20.924;2022-10-23T04:17:43;100706.59;;;12.93;100.00
56174;BME280;42058;52.308;20.924;2022-10-23T04:20:09;100704.81;;;12.93;100.00
56174;BME280;42058;52.308;20.924;2022-10-23T04:22:35;100714.05;;;12.93;100.00
56174;BME280;42058;52.308;20.924;2022-10-23T04:25:01;100714.95;;;12.92;100.00
56174;BME280;42058;52.308;20.924;2022-10-23T04:27:29;100715.84;;;12.93;100.00
56174;BME280;42058;52.308;20.924;2022-10-23T04:29:55;100710.60;;;12.91;100.00
56174;BME280;42058;52.308;20.924;2022-10-23T04:32:21;100711.50;;;12.90;100.00
56174;BME280;42058;52.308;20.924;2022-10-23T04:34:47;100712.39;;;12.91;100.00
56174;BME280;42058;52.308;20.924;2022-10-23T04:37:13;100715.03;;;12.91;100.00
56174;BME280;42058;52.308;20.924;2022-10-23T04:39:39;100718.06;;;12.92;100.00
56174;BME280;42058;52.308;20.924;2022-10-23T04:42:05;100714.14;;;12.90;100.00
56174;BME280;42058;52.308;20.924;2022-10-23T04:44:31;100717.67;;;12.91;100.00
56174;BME280;42058;52.308;20.924;2022-10-23T04:46:57;100721.63;;;12.91;100.00
56174;BME280;42058;52.308;20.924;2022-10-23T04:49:23;100725.17;;;12.89;100.00
56174;BME280;42058;52.308;20.924;2022-10-23T04:52:00;100724.70;;;12.90;100.00
56174;BME280;42058;52.308;20.924;2022-10-23T04:54:38;100727.81;;;12.89;100.00
56174;BME280;42058;52.308;20.924;2022-10-23T04:57:18;100726.06;;;12.88;100.00
56174;BME280;42058;52.308;20.924;2022-10-23T04:59:53;100728.32;;;12.87;100.00
56174;BME280;42058;52.308;20.924;2022-10-23T05:02:19;100725.68;;;12.87;100.00
56174;BME280;42058;52.308;20.924;2022-10-23T05:04:47;100727.00;;;12.87;100.00
56174;BME280;42058;52.308;20.924;2022-10-23T05:07:18;100722.23;;;12.85;100.00
56174;BME280;42058;52.308;20.924;2022-10-23T05:09:46;100722.23;;;12.85;100.00
56174;BME280;42058;52.308;20.924;2022-10-23T05:12:26;100724.44;;;12.84;100.00
56174;BME280;42058;52.308;20.924;2022-10-23T05:14:53;100731.05;;;12.84;100.00
56174;BME280;42058;52.308;20.924;2022-10-23T05:17:23;100728.45;;;12.83;100.00
56174;BME280;42058;52.308;20.924;2022-10-23T05:19:53;100727.59;;;12.82;100.00
56174;BME280;42058;52.308;20.924;2022-10-23T05:22:24;100724.95;;;12.82;100.00
56174;BME280;42058;52.308;20.924;2022-10-23T05:24:52;100731.16;;;12.81;100.00
56174;BME280;42058;52.308;20.924;2022-10-23T05:27:21;100730.31;;;12.79;100.00
56174;BME280;42058;52.308;20.924;2022-10-23T05:29:47;100735.67;;;12.78;100.00
56174;BME280;42058;52.308;20.924;2022-10-23T05:32:15;100731.33;;;12.75;100.00
56174;BME280;42058;52.308;20.924;2022-10-23T05:34:43;100736.61;;;12.75;100.00
56174;BME280;42058;52.308;20.924;2022-10-23T05:37:11;100748.11;;;12.74;100.00
56174;BME280;42058;52.308;20.924;2022-10-23T05:39:39;100750.33;;;12.73;100.00
56174;BME280;42058;52.308;20.924;2022-10-23T05:42:07;100752.54;;;12.72;100.00
56174;BME280;42058;52.308;20.924;2022-10-23T05:44:33;100755.69;;;12.70;100.00
56174;BME280;42058;52.308;20.924;2022-10-23T05:47:08;100752.66;;;12.69;100.00
56174;BME280;42058;52.308;20.924;2022-10-23T05:49:53;100757.12;;;12.67;100.00
56174;BME280;42058;52.308;20.924;2022-10-23T05:52:33;100758.44;;;12.67;100.00
56174;BME280;42058;52.308;20.924;2022-10-23T05:55:06;100765.55;;;12.65;100.00
56174;BME280;42058;52.308;20.924;2022-10-23T05:57:36;100764.23;;;12.65;100.00
56174;BME280;42058;52.308;20.924;2022-10-23T06:00:05;100757.20;;;12.64;100.00
56174;BME280;42058;52.308;20.924;2022-10-23T06:02:41;100765.59;;;12.63;100.00
56174;BME280;42058;52.308;20.924;2022-10-23T06:05:12;100763.38;;;12.63;100.00
56174;BME280;42058;52.308;20.924;2022-10-23T06:07:46;100759.42;;;12.63;100.00
56174;BME280;42058;52.308;20.924;2022-10-23T06:10:12;100751.11;;;12.62;100.00
56174;BME280;42058;52.308;20.924;2022-10-23T06:12:40;100751.11;;;12.62;100.00
56174;BME280;42058;52.308;20.924;2022-10-23T06:15:08;100765.20;;;12.61;100.00
56174;BME280;42058;52.308;20.924;2022-10-23T06:17:55;100765.20;;;12.61;100.00
56174;BME280;42058;52.308;20.924;2022-10-23T06:20:24;100768.27;;;12.62;100.00
56174;BME280;42058;52.308;20.924;2022-10-23T06:22:52;100778.41;;;12.61;100.00
56174;BME280;42058;52.308;20.924;2022-10-23T06:25:20;100785.00;;;12.61;100.00
56174;BME280;42058;52.308;20.924;2022-10-23T06:27:49;100781.97;;;12.60;100.00
56174;BME280;42058;52.308;20.924;2022-10-23T06:30:16;100787.25;;;12.60;100.00
56174;BME280;42058;52.308;20.924;2022-10-23T06:32:44;100794.25;;;12.61;100.00
56174;BME280;42058;52.308;20.924;2022-10-23T06:35:11;100785.89;;;12.61;100.00
56174;BME280;42058;52.308;20.924;2022-10-23T06:37:37;100789.85;;;12.61;100.00
56174;BME280;42058;52.308;20.924;2022-10-23T06:40:09;100783.69;;;12.61;100.00
56174;BME280;42058;52.308;20.924;2022-10-23T06:42:39;100786.75;;;12.62;100.00
56174;BME280;42058;52.308;20.924;2022-10-23T06:45:23;100800.34;;;12.63;100.00
56174;BME280;42058;52.308;20.924;2022-10-23T06:47:52;100803.87;;;12.63;100.00
56174;BME280;42058;52.308;20.924;2022-10-23T06:50:37;100800.77;;;12.64;100.00
56174;BME280;42058;52.308;20.924;2022-10-23T06:53:06;100806.51;;;12.63;100.00
56174;BME280;42058;52.308;20.924;2022-10-23T06:55:33;100807.83;;;12.63;100.00
56174;BME280;42058;52.308;20.924;2022-10-23T06:57:59;100816.11;;;12.66;100.00
56174;BME280;42058;52.308;20.924;2022-10-23T07:00:25;100820.06;;;12.66;100.00
56174;BME280;42058;52.308;20.924;2022-10-23T07:02:52;100823.52;;;12.68;100.00
56174;BME280;42058;52.308;20.924;2022-10-23T07:05:18;100821.30;;;12.69;100.00
56174;BME280;42058;52.308;20.924;2022-10-23T07:07:45;100820.80;;;12.71;100.00
56174;BME280;42058;52.308;20.924;2022-10-23T07:10:13;100815.05;;;12.72;100.00
56174;BME280;42058;52.308;20.924;2022-10-23T07:12:41;100815.88;;;12.74;100.00
56174;BME280;42058;52.308;20.924;2022-10-23T07:15:28;100807.59;;;12.71;100.00
56174;BME280;42058;52.308;20.924;2022-10-23T07:17:55;100806.51;;;12.78;100.00
56174;BME280;42058;52.308;20.924;2022-10-23T07:20:21;100810.47;;;12.78;100.00
56174;BME280;42058;52.308;20.924;2022-10-23T07:22:55;100808.64;;;12.80;100.00
56174;BME280;42058;52.308;20.924;2022-10-23T07:25:25;100809.46;;;12.82;100.00
56174;BME280;42058;52.308;20.924;2022-10-23T07:27:51;100812.53;;;12.83;100.00
56174;BME280;42058;52.308;20.924;2022-10-23T07:30:20;100818.62;;;12.85;100.00
56174;BME280;42058;52.308;20.924;2022-10-23T07:32:48;100819.91;;;12.87;100.00
56174;BME280;42058;52.308;20.924;2022-10-23T07:35:33;100811.05;;;12.88;100.00
56174;BME280;42058;52.308;20.924;2022-10-23T07:38:01;100817.61;;;12.89;100.00
56174;BME280;42058;52.308;20.924;2022-10-23T07:40:29;100813.19;;;12.90;100.00
56174;BME280;42058;52.308;20.924;2022-10-23T07:42:55;100814.00;;;12.92;100.00
56174;BME280;42058;52.308;20.924;2022-10-23T07:45:21;100811.74;;;12.95;100.00
56174;BME280;42058;52.308;20.924;2022-10-23T07:47:51;100805.53;;;12.96;100.00
56174;BME280;42058;52.308;20.924;2022-10-23T07:50:17;100806.77;;;12.99;100.00
56174;BME280;42058;52.308;20.924;2022-10-23T07:52:43;100804.94;;;13.01;100.00
56174;BME280;42058;52.308;20.924;2022-10-23T07:55:11;100810.09;;;13.05;100.00
56174;BME280;42058;52.308;20.924;2022-10-23T07:57:46;100802.98;;;13.07;100.00
56174;BME280;42058;52.308;20.924;2022-10-23T08:00:17;100803.76;;;13.11;100.00
56174;BME280;42058;52.308;20.924;2022-10-23T08:02:45;100800.61;;;13.13;100.00
56174;BME280;42058;52.308;20.924;2022-10-23T08:05:11;100801.38;;;13.17;100.00
56174;BME280;42058;52.308;20.924;2022-10-23T08:07:39;100795.54;;;13.20;100.00
56174;BME280;42058;52.308;20.924;2022-10-23T08:10:06;100792.81;;;13.23;100.00
56174;BME280;42058;52.308;20.924;2022-10-23T08:12:33;100795.76;;;13.27;100.00
56174;BME280;42058;52.308;20.924;2022-10-23T08:14:59;100795.70;;;13.31;100.00
56174;BME280;42058;52.308;20.924;2022-10-23T08:17:28;100798.22;;;13.34;100.00
56174;BME280;42058;52.308;20.924;2022-10-23T08:20:02;100798.14;;;13.37;100.00
56174;BME280;42058;52.308;20.924;2022-10-23T08:22:30;100798.91;;;13.40;100.00
56174;BME280;42058;52.308;20.924;2022-10-23T08:24:57;100802.31;;;13.44;100.00
56174;BME280;42058;52.308;20.924;2022-10-23T08:27:23;100794.30;;;13.47;100.00
56174;BME280;42058;52.308;20.924;2022-10-23T08:29:49;100794.17;;;13.50;100.00
56174;BME280;42058;52.308;20.924;2022-10-23T08:32:15;100799.75;;;13.54;100.00
56174;BME280;42058;52.308;20.924;2022-10-23T08:34:54;100810.66;;;13.58;100.00
56174;BME280;42058;52.308;20.924;2022-10-23T08:37:23;100809.22;;;13.61;100.00
56174;BME280;42058;52.308;20.924;2022-10-23T08:39:49;100800.89;;;13.60;100.00
56174;BME280;42058;52.308;20.924;2022-10-23T08:42:23;100812.19;;;13.65;100.00
56174;BME280;42058;52.308;20.924;2022-10-23T08:45:05;100817.36;;;13.69;100.00
56174;BME280;42058;52.308;20.924;2022-10-23T08:47:53;100817.78;;;13.70;100.00
56174;BME280;42058;52.308;20.924;2022-10-23T08:50:32;100823.87;;;13.72;100.00
56174;BME280;42058;52.308;20.924;2022-10-23T08:53:11;100821.53;;;13.76;100.00
56174;BME280;42058;52.308;20.924;2022-10-23T08:55:45;100821.53;;;13.76;100.00
56174;BME280;42058;52.308;20.924;2022-10-23T08:58:35;100812.69;;;13.77;100.00
56174;BME280;42058;52.308;20.924;2022-10-23T09:01:23;100805.56;;;13.79;100.00
56174;BME280;42058;52.308;20.924;2022-10-23T09:03:52;100809.83;;;13.83;100.00
56174;BME280;42058;52.308;20.924;2022-10-23T09:06:30;100810.25;;;13.84;100.00
56174;BME280;42058;52.308;20.924;2022-10-23T09:09:07;100810.59;;;13.87;100.00
56174;BME280;42058;52.308;20.924;2022-10-23T09:12:11;100804.83;;;13.87;100.00
56174;BME280;42058;52.308;20.924;2022-10-23T09:14:52;100817.34;;;13.95;100.00
56174;BME280;42058;52.308;20.924;2022-10-23T09:17:24;100817.26;;;13.98;100.00
56174;BME280;42058;52.308;20.924;2022-10-23T09:20:06;100817.26;;;13.98;100.00
56174;BME280;42058;52.308;20.924;2022-10-23T09:22:40;100804.22;;;14.06;100.00
56174;BME280;42058;52.308;20.924;2022-10-23T09:25:08;100803.33;;;14.05;100.00
56174;BME280;42058;52.308;20.924;2022-10-23T09:27:37;100803.33;;;14.05;100.00
56174;BME280;42058;52.308;20.924;2022-10-23T09:30:04;100815.39;;;14.14;100.00
56174;BME280;42058;52.308;20.924;2022-10-23T09:32:36;100819.26;;;14.17;100.00
56174;BME280;42058;52.308;20.924;2022-10-23T09:35:05;100804.41;;;14.13;100.00
56174;BME280;42058;52.308;20.924;2022-10-23T09:37:33;100822.09;;;14.24;100.00
56174;BME280;42058;52.308;20.924;2022-10-23T09:40:24;100819.73;;;14.28;100.00
56174;BME280;42058;52.308;20.924;2022-10-23T09:43:15;100818.55;;;14.37;100.00
56174;BME280;42058;52.308;20.924;2022-10-23T09:45:39;100818.55;;;14.37;100.00
56174;BME280;42058;52.308;20.924;2022-10-23T09:48:17;100812.73;;;14.39;100.00
56174;BME280;42058;52.308;20.924;2022-10-23T09:50:58;100808.66;;;14.42;100.00
56174;BME280;42058;52.308;20.924;2022-10-23T09:53:37;100810.42;;;14.41;100.00
56174;BME280;42058;52.308;20.924;2022-10-23T09:56:32;100812.39;;;14.48;100.00
56174;BME280;42058;52.308;20.924;2022-10-23T10:01:52;100809.98;;;14.54;100.00
56174;BME280;42058;52.308;20.924;2022-10-23T10:04:38;100809.98;;;14.54;100.00
56174;BME280;42058;52.308;20.924;2022-10-23T10:07:24;100809.98;;;14.54;100.00
56174;BME280;42058;52.308;20.924;2022-10-23T10:09:54;100800.30;;;14.53;100.00
56174;BME280;42058;52.308;20.924;2022-10-23T10:12:41;100811.30;;;14.54;100.00
56174;BME280;42058;52.308;20.924;2022-10-23T10:15:22;100804.69;;;14.54;100.00
56174;BME280;42058;52.308;20.924;2022-10-23T10:18:14;100804.69;;;14.54;100.00
56174;BME280;42058;52.308;20.924;2022-10-23T10:21:09;100801.83;;;14.60;100.00
56174;BME280;42058;52.308;20.924;2022-10-23T10:24:04;100804.42;;;14.61;100.00
56174;BME280;42058;52.308;20.924;2022-10-23T10:30:01;100808.45;;;14.60;100.00
56174;BME280;42058;52.308;20.924;2022-10-23T10:32:37;100813.13;;;14.65;100.00
56174;BME280;42058;52.308;20.924;2022-10-23T10:44:08;100809.42;;;14.69;100.00
56174;BME280;42058;52.308;20.924;2022-10-23T10:49:54;100801.48;;;14.69;100.00
56174;BME280;42058;52.308;20.924;2022-10-23T10:52:57;100803.12;;;14.73;100.00
56174;BME280;42058;52.308;20.924;2022-10-23T10:55:27;100799.47;;;14.76;100.00
56174;BME280;42058;52.308;20.924;2022-10-23T10:58:14;100798.09;;;14.77;100.00
56174;BME280;42058;52.308;20.924;2022-10-23T11:00:49;100798.52;;;14.78;100.00
56174;BME280;42058;52.308;20.924;2022-10-23T11:05:58;100795.72;;;14.82;100.00
56174;BME280;42058;52.308;20.924;2022-10-23T11:08:36;100795.20;;;14.84;100.00
56174;BME280;42058;52.308;20.924;2022-10-23T11:11:20;100789.91;;;14.84;100.00
56174;BME280;42058;52.308;20.924;2022-10-23T11:13:53;100785.41;;;14.86;100.00
56174;BME280;42058;52.308;20.924;2022-10-23T11:16:28;100785.82;;;14.87;100.00
56174;BME280;42058;52.308;20.924;2022-10-23T11:19:11;100786.23;;;14.88;100.00
56174;BME280;42058;52.308;20.924;2022-10-23T11:21:55;100780.00;;;14.89;100.00
56174;BME280;42058;52.308;20.924;2022-10-23T11:24:52;100783.06;;;14.90;100.00
56174;BME280;42058;52.308;20.924;2022-10-23T11:27:25;100788.75;;;14.91;100.00
56174;BME280;42058;52.308;20.924;2022-10-23T11:30:21;100794.46;;;14.92;100.00
56174;BME280;42058;52.308;20.924;2022-10-23T11:33:14;100787.84;;;14.92;100.00
56174;BME280;42058;52.308;20.924;2022-10-23T11:36:12;100786.52;;;14.92;100.00
56174;BME280;42058;52.308;20.924;2022-10-23T11:38:46;100778.51;;;14.93;100.00
56174;BME280;42058;52.308;20.924;2022-10-23T11:41:25;100780.74;;;14.92;100.00
56174;BME280;42058;52.308;20.924;2022-10-23T11:44:00;100777.56;;;14.94;100.00
56174;BME280;42058;52.308;20.924;2022-10-23T11:46:31;100769.09;;;14.96;100.00
56174;BME280;42058;52.308;20.924;2022-10-23T11:49:02;100768.13;;;14.99;100.00
56174;BME280;42058;52.308;20.924;2022-10-23T11:51:37;100764.01;;;15.02;100.00
56174;BME280;42058;52.308;20.924;2022-10-23T11:54:19;100760.72;;;15.07;100.00
56174;BME280;42058;52.308;20.924;2022-10-23T11:59:51;100754.19;;;15.16;100.00
56174;BME280;42058;52.308;20.924;2022-10-23T12:02:28;100754.94;;;15.19;100.00
56174;BME280;42058;52.308;20.924;2022-10-23T12:05:03;100752.17;;;15.23;100.00
56174;BME280;42058;52.308;20.924;2022-10-23T12:07:37;100755.08;;;15.27;100.00
56174;BME280;42058;52.308;20.924;2022-10-23T12:10:15;100756.67;;;15.31;100.00
56174;BME280;42058;52.308;20.924;2022-10-23T12:15:25;100752.05;;;15.36;100.00
56174;BME280;42058;52.308;20.924;2022-10-23T12:17:53;100749.34;;;15.37;100.00
56174;BME280;42058;52.308;20.924;2022-10-23T12:26:10;100746.48;;;15.42;100.00
56174;BME280;42058;52.308;20.924;2022-10-23T12:28:58;100752.62;;;15.44;100.00
56174;BME280;42058;52.308;20.924;2022-10-23T12:31:54;100753.00;;;15.45;100.00
56174;BME280;42058;52.308;20.924;2022-10-23T12:37:45;100756.97;;;15.45;100.00
56174;BME280;42058;52.308;20.924;2022-10-23T12:40:11;100757.92;;;15.44;100.00
56174;BME280;42058;52.308;20.924;2022-10-23T12:42:38;100757.92;;;15.44;100.00
56174;BME280;42058;52.308;20.924;2022-10-23T12:45:19;100764.08;;;15.45;100.00
56174;BME280;42058;52.308;20.924;2022-10-23T12:47:54;100758.83;;;15.43;100.00
56174;BME280;42058;52.308;20.924;2022-10-23T12:50:26;100757.09;;;15.42;100.00
56174;BME280;42058;52.308;20.924;2022-10-23T12:52:57;100758.42;;;15.42;100.00
56174;BME280;42058;52.308;20.924;2022-10-23T12:55:33;100755.39;;;15.41;100.00
56174;BME280;42058;52.308;20.924;2022-10-23T12:58:29;100758.51;;;15.41;100.00
56174;BME280;42058;52.308;20.924;2022-10-23T13:01:02;100758.89;;;15.42;100.00
56174;BME280;42058;52.308;20.924;2022-10-23T13:03:31;100765.14;;;15.41;100.00
56174;BME280;42058;52.308;20.924;2022-10-23T13:06:01;100760.69;;;15.41;100.00
56174;BME280;42058;52.308;20.924;2022-10-23T13:08:38;100754.53;;;15.41;100.00
56174;BME280;42058;52.308;20.924;2022-10-23T13:11:14;100768.64;;;15.41;100.00
56174;BME280;42058;52.308;20.924;2022-10-23T13:13:42;100768.23;;;15.40;100.00
56174;BME280;42058;52.308;20.924;2022-10-23T13:16:17;100769.81;;;15.34;100.00
56174;BME280;42058;52.308;20.924;2022-10-23T13:18:46;100767.70;;;15.32;100.00
56174;BME280;42058;52.308;20.924;2022-10-23T13:21:20;100767.70;;;15.32;100.00
56174;BME280;42058;52.308;20.924;2022-10-23T13:23:51;100768.87;;;15.35;100.00
56174;BME280;42058;52.308;20.924;2022-10-23T13:26:32;100764.62;;;15.31;100.00
56174;BME280;42058;52.308;20.924;2022-10-23T13:29:00;100764.62;;;15.31;100.00
56174;BME280;42058;52.308;20.924;2022-10-23T13:31:30;100772.05;;;15.33;100.00
56174;BME280;42058;52.308;20.924;2022-10-23T13:36:34;100768.61;;;15.31;100.00
56174;BME280;42058;52.308;20.924;2022-10-23T13:39:03;100772.20;;;15.30;100.00
56174;BME280;42058;52.308;20.924;2022-10-23T13:41:43;100774.44;;;15.29;100.00
56174;BME280;42058;52.308;20.924;2022-10-23T13:44:12;100772.73;;;15.28;100.00
56174;BME280;42058;52.308;20.924;2022-10-23T13:46:41;100773.12;;;15.29;100.00
56174;BME280;42058;52.308;20.924;2022-10-23T13:49:08;100770.99;;;15.27;100.00
56174;BME280;42058;52.308;20.924;2022-10-23T13:51:40;100760.65;;;15.21;100.00
56174;BME280;42058;52.308;20.924;2022-10-23T13:54:21;100760.65;;;15.21;100.00
56174;BME280;42058;52.308;20.924;2022-10-23T13:56:49;100768.87;;;15.25;100.00